Cindy Brent — WDC2642 — position and weather

sailwx.info

Track history (hours):
 
Tides and Currents Weather Stations Pressure Air Temp Water Temp Dewpoint Dewpoint Depression Visibility Wind Speed Wind Dir Waves Ship Positions

Cindy Brent

Owner: Kirby Inland Marine LP, Houston, TX. More information available from US FCC via Universal Licensing System and Coast Guard Vessel Documentation Center.

Last reported at 2018-Jun-19 08:10 UTC. Time now 2018-Jun-24 09:15 UTC.
Position N 31°42' W 091°24'.

Length 26 m; draft 2.7 m.

Type: . MMSI: 366995920.

Date/timePositionNaut miles runAvg speedWind from/ knotsBaromVisibWave heightAir tempDewpointWater temp
2018-Jun-19 08:10N 31°42' W 091°24'210.1
2018-Jun-19 08:00N 31°44' W 091°23'510.5
2018-Jun-19 07:30N 31°49' W 091°21'510.0
2018-Jun-19 06:58N 31°51' W 091°16'511.1
2018-Jun-19 06:29N 31°55' W 091°12'6 9.8
2018-Jun-19 05:50N 31°59' W 091°06'411.5
2018-Jun-19 05:30N 32°03' W 091°04'510.8
2018-Jun-19 05:00N 32°07' W 091°06'510.2
2018-Jun-19 04:30N 32°08' W 091°00'611.7
2018-Jun-19 04:00N 32°14' W 090°59'611.6
2018-Jun-19 03:30N 32°18' W 090°55'4 8.2
2018-Jun-19 03:00N 32°21' W 090°59'4 8.9
2018-Jun-19 02:30N 32°25' W 091°00'611.0
2018-Jun-19 02:00N 32°28' W 091°06'2 4.5
2018-Jun-19 01:30N 32°30' W 091°07'0 0.0
2018-Jun-19 01:00N 32°30' W 091°07'0 0.0
2018-Jun-19 00:30N 32°30' W 091°07'0 0.0
2018-Jun-19 00:00N 32°30' W 091°07'0 0.0
2018-Jun-18 23:30N 32°30' W 091°07'0 0.0
2018-Jun-18 23:00N 32°30' W 091°07'0 0.0
2018-Jun-18 22:29N 32°30' W 091°07'0 0.0
2018-Jun-18 21:59N 32°30' W 091°07'0 0.0
2018-Jun-18 21:30N 32°30' W 091°07'0 0.0
2018-Jun-18 21:01N 32°30' W 091°07'0 0.0
2018-Jun-18 20:31N 32°30' W 091°07'0 0.0
2018-Jun-18 20:00N 32°30' W 091°07'0 0.0
2018-Jun-18 19:30N 32°30' W 091°07'0 0.0
2018-Jun-18 19:01N 32°30' W 091°07'0 0.0
2018-Jun-18 18:30N 32°30' W 091°07'0 0.0
2018-Jun-18 18:00N 32°30' W 091°07'0 0.0
2018-Jun-18 17:30N 32°30' W 091°07'0 0.0
2018-Jun-18 17:00N 32°30' W 091°07'0 0.0
2018-Jun-18 16:31N 32°30' W 091°07'0 0.0
2018-Jun-18 16:00N 32°30' W 091°07'0 0.5
2018-Jun-18 15:31N 32°29' W 091°07'3 5.7
2018-Jun-18 15:00N 32°27' W 091°05'3 5.7
2018-Jun-18 14:31N 32°26' W 091°02'3 5.2
2018-Jun-18 14:01N 32°24' W 090°60'3 5.5
2018-Jun-18 13:30N 32°22' W 091°00'3 5.6
2018-Jun-18 13:00N 32°21' W 090°57'3 5.2
2018-Jun-18 12:30N 32°20' W 090°54'3 5.0
2018-Jun-18 12:01N 32°18' W 090°56'3 5.4
2018-Jun-18 11:30N 32°16' W 090°58'3 5.5
2018-Jun-18 11:00N 32°13' W 090°59'3 5.4
2018-Jun-18 10:30N 32°11' W 090°60'3 5.3
2018-Jun-18 10:01N 32°08' W 091°00'2 4.9
2018-Jun-18 09:31N 32°08' W 091°03'3 5.2
2018-Jun-18 09:01N 32°08' W 091°06'4 3.7
2018-Jun-18 08:03N 32°05' W 091°04'0 3.7
2018-Jun-18 07:55N 32°04' W 091°04'2 5.6
2018-Jun-18 07:29N 32°02' W 091°04'3 5.9
2018-Jun-18 06:56N 31°59' W 091°06'4 5.4
2018-Jun-18 06:10N 31°58' W 091°11'  
Track history (hours):
 
Tides and Currents Weather Stations Pressure Air Temp Water Temp Dewpoint Dewpoint Depression Visibility Wind Speed Wind Dir Waves Ship Positions

Cindy Brent

Owner: Kirby Inland Marine LP, Houston, TX. More information available from US FCC via Universal Licensing System and Coast Guard Vessel Documentation Center.

Last reported at 2018-Jun-19 08:10 UTC. Time now 2018-Jun-24 09:15 UTC.
Position N 31°42' W 091°24'.

Length 26 m; draft 2.7 m.

Type: . MMSI: 366995920.

Date/timePositionNaut miles runAvg speedWind from/ knotsBaromVisibWave heightAir tempDewpointWater temp
2018-Jun-19 08:10N 31°42' W 091°24'210.1
2018-Jun-19 08:00N 31°44' W 091°23'510.5
2018-Jun-19 07:30N 31°49' W 091°21'510.0
2018-Jun-19 06:58N 31°51' W 091°16'511.1
2018-Jun-19 06:29N 31°55' W 091°12'6 9.8
2018-Jun-19 05:50N 31°59' W 091°06'411.5
2018-Jun-19 05:30N 32°03' W 091°04'510.8
2018-Jun-19 05:00N 32°07' W 091°06'510.2
2018-Jun-19 04:30N 32°08' W 091°00'611.7
2018-Jun-19 04:00N 32°14' W 090°59'611.6
2018-Jun-19 03:30N 32°18' W 090°55'4 8.2
2018-Jun-19 03:00N 32°21' W 090°59'4 8.9
2018-Jun-19 02:30N 32°25' W 091°00'611.0
2018-Jun-19 02:00N 32°28' W 091°06'2 4.5
2018-Jun-19 01:30N 32°30' W 091°07'0 0.0
2018-Jun-19 01:00N 32°30' W 091°07'0 0.0
2018-Jun-19 00:30N 32°30' W 091°07'0 0.0
2018-Jun-19 00:00N 32°30' W 091°07'0 0.0
2018-Jun-18 23:30N 32°30' W 091°07'0 0.0
2018-Jun-18 23:00N 32°30' W 091°07'0 0.0
2018-Jun-18 22:29N 32°30' W 091°07'0 0.0
2018-Jun-18 21:59N 32°30' W 091°07'0 0.0
2018-Jun-18 21:30N 32°30' W 091°07'0 0.0
2018-Jun-18 21:01N 32°30' W 091°07'0 0.0
2018-Jun-18 20:31N 32°30' W 091°07'0 0.0
2018-Jun-18 20:00N 32°30' W 091°07'0 0.0
2018-Jun-18 19:30N 32°30' W 091°07'0 0.0
2018-Jun-18 19:01N 32°30' W 091°07'0 0.0
2018-Jun-18 18:30N 32°30' W 091°07'0 0.0
2018-Jun-18 18:00N 32°30' W 091°07'0 0.0
2018-Jun-18 17:30N 32°30' W 091°07'0 0.0
2018-Jun-18 17:00N 32°30' W 091°07'0 0.0
2018-Jun-18 16:31N 32°30' W 091°07'0 0.0
2018-Jun-18 16:00N 32°30' W 091°07'0 0.5
2018-Jun-18 15:31N 32°29' W 091°07'3 5.7
2018-Jun-18 15:00N 32°27' W 091°05'3 5.7
2018-Jun-18 14:31N 32°26' W 091°02'3 5.2
2018-Jun-18 14:01N 32°24' W 090°60'3 5.5
2018-Jun-18 13:30N 32°22' W 091°00'3 5.6
2018-Jun-18 13:00N 32°21' W 090°57'3 5.2
2018-Jun-18 12:30N 32°20' W 090°54'3 5.0
2018-Jun-18 12:01N 32°18' W 090°56'3 5.4
2018-Jun-18 11:30N 32°16' W 090°58'3 5.5
2018-Jun-18 11:00N 32°13' W 090°59'3 5.4
2018-Jun-18 10:30N 32°11' W 090°60'3 5.3
2018-Jun-18 10:01N 32°08' W 091°00'2 4.9
2018-Jun-18 09:31N 32°08' W 091°03'3 5.2
2018-Jun-18 09:01N 32°08' W 091°06'4 3.7
2018-Jun-18 08:03N 32°05' W 091°04'0 3.7
2018-Jun-18 07:55N 32°04' W 091°04'2 5.6
2018-Jun-18 07:29N 32°02' W 091°04'3 5.9
2018-Jun-18 06:56N 31°59' W 091°06'4 5.4
2018-Jun-18 06:10N 31°58' W 091°11'  

Dump ship's entire track history